Randolph Air Force Base
KRND : rendu visible

Aérodrome :











RETROUVEZ-NOUS SUR...

 
LOGIN :

S'inscrire | Disclaimer

   EN    FR    IT 

 









Légende :    VFR   VFR Marginal   IFR   IFR Intensif   IFR Très Intensif
Visi : 
Plafond : 
>= 8 km
>= 3000ft
5 à 8 km
1000 à 3000 ft
1500m à 5 km
500 à 1000 ft
800 à 1500m
200 à 500 ft
< 800m
< 200 ft
Symboles :   Orages  Brouillard  Fortes neiges  Fortes précipitations  Vent > 20 kt






- Altitude de l'aérodrome : 761 ft


KRND - Randolph Air Force Base

DERNIER METAR :
  • 270156Z AUTO 05004KT 10SM CLR 19/08 A2997 RMK AO2 SLP146 T01850082

METARs EXPIRÉS :
  • 270056Z AUTO 00000KT 10SM CLR 20/09 A2995 RMK AO2 SLP139 T02020094
  • 262356Z AUTO 10005KT 10SM CLR 21/10 A2994 RMK AO2 SLP135 T02130098 10251 20201 55002

TAF TAF KRND
Valide du 26 à 18h jusqu'au 28 à 00h UTC


261757Z 2618/2724 35009KT 9999 SKC QNH3000INS
BECMG 2700/2701 VRB05KT 9999 SKC QNH2990INS
BECMG 2713/2714 14009KT 9999 SKC QNH2997INS TX24/2621Z TN09/2712Z LAST NO AMDS AFT 2701 NEXT 2711



MET'MAP, la Météo Aéronautique d'un coup d'oeil ! - Copyright ORBIFLY Décembre 2007 - Disclaimer

ORBIFLY MET'MAP TEAM :

Programmation & Développement : Alexandra Zaïnal
Sur une idée originale de : Baudouin d'Aumeries
Assistance à la programmation : Marc-Olivier Méhu
Soutien technique & logistique : Manuel Goepfert

Contact : metmap@orbifly.com




SOURCES & CREDITS :

   NOAA       Earth
Advisory